Middenmeer Aerodrome

EHMM · North Holland, 荷兰

METAR的历史 EHMM · Middenmeer Aerodrome

下面你可以看到过去几天的METARs。 选择年份以浏览从2007年开始的旧METAR。

2024年3月5日

时间 代码 天气 温度 能见度 天花板 METAR/SPECI
12:25
V
9 °C 9 km 6.800 ft 110° 110° 6 kt METAR EHKD 051125Z AUTO 11006KT 070V140 9000 BR FEW050 BKN068 OVC073 09/07 Q1014 BLU NOSIG
12:14
M
9 °C 7 km 6.600 ft 110° 110° 6 kt METAR EHKD 051114Z AUTO 11006KT 080V140 7000 BR FEW061 OVC066 09/07 Q1014 WHT NOSIG
12:06
V
9 °C 9 km 6.600 ft 110° 110° 6 kt METAR EHKD 051106Z AUTO 11006KT 080V140 9000 BR FEW011 BKN066 OVC073 09/07 Q1014 BLU NOSIG
12:04
V
9 °C 8 km 7.300 ft 100° 100° 6 kt METAR EHKD 051104Z AUTO 10006KT 070V130 8000 BR FEW010 SCT061 BKN073 09/07 Q1014 BLU BECMG FEW010 SCT012
11:55
M
9 °C 6 km 8.400 ft 090° 090° 6 kt METAR EHKD 051055Z AUTO 09006KT 6000 BR FEW007 SCT009 OVC084 09/07 Q1014 GRN BECMG FEW010 SCT012
11:34
I
8 °C 5 km 700 ft 080° 080° 7 kt METAR EHKD 051034Z AUTO 08007KT 5000 BR FEW004 BKN007 BKN008 08/07 Q1014 GRN TEMPO 4000 BR SCT005
11:25
I
8 °C 5 km 500 ft 080° 080° 7 kt METAR EHKD 051025Z AUTO 08007KT 5000 BR SCT004 BKN005 OVC007 08/07 Q1014 YLO TEMPO 4000 BR SCT005
11:01
L
8 °C 4,4 km 400 ft 080° 080° 6 kt METAR EHKD 051001Z AUTO 08006KT 4400 BR BKN004 BKN005 OVC060 08/07 Q1013 YLO TEMPO 4000 BR SCT005
10:55
I
8 °C 4,9 km 6.000 ft 080° 080° 5 kt METAR EHKD 050955Z AUTO 08005KT 4900 BR FEW004 SCT006 BKN060 08/07 Q1013 YLO TEMPO 4000 BR SCT005
10:42
I
8 °C 4,7 km 7.000 ft 080° 080° 4 kt METAR EHKD 050942Z AUTO 08004KT 060V120 4700 BR OVC070 08/07 Q1013 GRN TEMPO 4000 BR SCT005
10:34
M
7 °C 5 km 6.500 ft 080° 080° 4 kt METAR EHKD 050934Z AUTO 08004KT 050V120 5000 BR FEW004 BKN065 OVC071 07/07 Q1013 WHT TEMPO 4000 BR SCT005
10:25
I
7 °C 4,6 km 6.500 ft 090° 090° 4 kt METAR EHKD 050925Z AUTO 09004KT 4600 BR FEW004 BKN065 BKN071 07/07 Q1013 GRN TEMPO 4000 BR SCT005
09:55
I
7 °C 4,7 km 8.500 ft 090° 090° 4 kt METAR EHKD 050855Z AUTO 09004KT 4700 BR FEW005 OVC085 07/06 Q1013 GRN TEMPO 4000 BR SCT005
09:38
I
7 °C 4,7 km 8.400 ft 090° 090° 4 kt METAR EHKD 050838Z AUTO 09004KT 4700 BR FEW004 OVC084 07/06 Q1013 GRN TEMPO 4000 BR SCT005
09:34
I
7 °C 4,6 km 8.400 ft 090° 090° 4 kt METAR EHKD 050834Z AUTO 09004KT 060V120 4600 BR FEW004 SCT006 OVC084 07/06 Q1013 YLO TEMPO 4000 BR SCT005
09:25
I
7 °C 4,6 km 8.300 ft 090° 090° 5 kt METAR EHKD 050825Z AUTO 09005KT 4600 BR FEW071 OVC083 07/06 Q1013 GRN TEMPO 4000 BR SCT005
09:12
I
7 °C 4,8 km 7.700 ft 080° 080° 5 kt METAR EHKD 050812Z AUTO 08005KT 4800 BR FEW005 SCT072 BKN077 07/06 Q1013 GRN TEMPO 4000 BR SCT005
09:06
M
7 °C 5 km 7.100 ft 080° 080° 6 kt METAR EHKD 050806Z AUTO 08006KT 5000 BR FEW005 BKN071 OVC081 07/06 Q1013 WHT TEMPO 4000 BR SCT005
09:02
I
7 °C 4,8 km 500 ft 080° 080° 6 kt METAR EHKD 050802Z AUTO 08006KT 4800 BR BKN005 OVC072 07/06 Q1013 YLO TEMPO 4000 BR SCT005
08:57
I
7 °C 4,6 km 7.200 ft 080° 080° 6 kt METAR EHKD 050757Z AUTO 08006KT 4600 BR SCT005 OVC072 07/06 Q1013 YLO TEMPO 4000 BR SCT005
08:37
I
7 °C 4,4 km 7.400 ft 080° 080° 6 kt METAR EHKD 050737Z AUTO 08006KT 4400 BR SCT005 OVC074 07/06 Q1013 YLO TEMPO 4000 BR SCT005
08:36
I
7 °C 4,8 km 7.600 ft 080° 080° 5 kt METAR EHKD 050736Z AUTO 08005KT 4800 BR SCT004 OVC076 07/06 Q1013 YLO TEMPO 4000 BR SCT005
08:31
I
7 °C 4,8 km 7.600 ft 080° 080° 5 kt METAR EHKD 050731Z AUTO 08005KT 4800 BR SCT005 OVC076 07/06 Q1013 YLO TEMPO 4000 BR SCT005
08:25
I
7 °C 4,6 km 8.300 ft 080° 080° 5 kt METAR EHKD 050725Z AUTO 08005KT 4600 BR SCT077 OVC083 07/06 Q1013 GRN TEMPO 4000 BR
07:55
M
7 °C 6 km 8.100 ft 080° 080° 5 kt METAR EHKD 050655Z AUTO 08005KT 6000 BR OVC081 07/06 Q1013 WHT TEMPO 4000 BR
07:25
M
6 °C 6 km 7.900 ft 080° 080° 5 kt METAR EHKD 050625Z AUTO 08005KT 6000 BR OVC079 06/05 Q1013 WHT TEMPO 4000 BR
06:55
M
6 °C 7 km 6.400 ft 100° 100° 4 kt METAR EHKD 050555Z AUTO 10004KT 070V140 7000 BR OVC064 06/05 Q1013 WHT TEMPO 4000 BR
06:42
V
6 °C 8 km 6.300 ft 100° 100° 4 kt METAR EHKD 050542Z AUTO 10004KT 070V130 8000 BR OVC063 06/06 Q1013 BLU TEMPO 4000 BR
06:25
M
6 °C 5 km 6.400 ft 090° 090° 5 kt METAR EHKD 050525Z AUTO 09005KT 5000 BR OVC064 06/06 Q1013 WHT TEMPO 4000 BR
06:08
M
6 °C 5 km 6.000 ft 090° 090° 6 kt METAR EHKD 050508Z AUTO 09006KT 5000 BR BKN060 OVC066 06/06 Q1013 WHT
06:04
I
6 °C 4,8 km 6.000 ft 080° 080° 6 kt METAR EHKD 050504Z AUTO 08006KT 4800 BR OVC060 06/06 Q1013 GRN
06:00
M
6 °C 5 km 6.200 ft 080° 080° 5 kt METAR EHKD 050500Z AUTO 08005KT 5000 BR OVC062 06/06 Q1012 WHT
05:55
I
6 °C 4 km 6.300 ft 080° 080° 4 kt METAR EHKD 050455Z AUTO 08004KT 4000 BR OVC063 06/05 Q1012 GRN
05:25
I
5 °C 4,2 km 34.000 ft 100° 100° 4 kt METAR EHKD 050425Z AUTO 10004KT 4200 BR SCT073 OVC340 05/05 Q1013 GRN
04:55
I
6 °C 4,1 km - 100° 100° 4 kt METAR EHKD 050355Z AUTO 10004KT 070V130 4100 BR NCD 06/05 Q1012 GRN
04:28
I
5 °C 4,8 km 5.300 ft 120° 120° 4 kt METAR EHKD 050328Z AUTO 12004KT 4800 BR BKN053 BKN058 05/05 Q1012 GRN
04:25
M
6 °C 5 km 5.300 ft 110° 110° 4 kt METAR EHKD 050325Z AUTO 11004KT 5000 BR BKN053 BKN058 06/05 Q1012 WHT
03:55
I
5 °C 4,1 km - 110° 110° 4 kt METAR EHKD 050255Z AUTO 11004KT 080V140 4100 BR FEW058 05/05 Q1012 GRN
03:25
M
5 °C 7 km - 110° 110° 4 kt METAR EHKD 050225Z AUTO 11004KT 7000 BR NCD 05/05 Q1012 WHT
02:59
M
5 °C 7 km - 110° 110° 3 kt METAR EHKD 050159Z AUTO 11003KT 7000 BR NCD 05/05 Q1012 WHT
02:55
V
5 °C 9 km - 110° 110° 3 kt METAR EHKD 050155Z AUTO 11003KT 9000 BR NCD 05/05 Q1012 BLU
02:33
V
4 °C 8 km - 100° 100° 4 kt METAR EHKD 050133Z AUTO 10004KT 8000 BR FEW052 04/04 Q1013 BLU
02:25
M
4 °C 7 km - 100° 100° 3 kt METAR EHKD 050125Z AUTO 10003KT 7000 BR FEW053 04/03 Q1013 WHT
02:15
L
3 °C 1,4 km - 100° 100° 3 kt METAR EHKD 050115Z AUTO 10003KT 1400 BR SCT052 03/03 Q1013 AMB
01:55
L
4 °C 700 m - 130° 130° 1 kt METAR EHKD 050055Z AUTO 13001KT 0700 FG FEW053 04/03 Q1012 RED
01:39
I
4 °C 2,9 km - 120° 120° 2 kt METAR EHKD 050039Z AUTO 12002KT 2900 BR FEW053 04/04 Q1012 YLO
01:25
V
6 °C 10 km+ 34.000 ft 120° 120° 3 kt METAR EHKD 050025Z AUTO 12003KT 9999 SCT050 BKN340 06/05 Q1013 BLU
00:55
V
5 °C 10 km+ - 090° 090° 4 kt METAR EHKD 042355Z AUTO 09004KT 9999 FEW340 05/05 Q1013 BLU
00:35
V
3 °C 10 km+ - 100° 100° 3 kt METAR EHKD 042335Z AUTO 10003KT 9999 SCT340 03/03 Q1013 BLU
00:31
I
3 °C 3,5 km 34.000 ft 100° 100° 3 kt METAR EHKD 042331Z AUTO 10003KT 3500 BR BKN340 03/03 Q1013 YLO
00:25
L
3 °C 500 m 34.000 ft 140° 140° 2 kt METAR EHKD 042325Z AUTO 14002KT 0500 FG BKN340 03/03 Q1012 RED
00:10
L
3 °C 650 m 34.000 ft 110° 110° 2 kt METAR EHKD 042310Z AUTO 11002KT 0650 FG FEW052 BKN340 03/03 Q1012 RED
00:03
L
3 °C 800 m 5.000 ft 100° 100° 2 kt METAR EHKD 042303Z AUTO 10002KT 0800 FG BKN050 BKN340 03/03 Q1012 AMB

2024年3月4日

时间 代码 天气 温度 能见度 天花板 METAR/SPECI
23:57
I
3 °C 2,6 km 5.000 ft Var Var 2 kt METAR EHKD 042257Z AUTO VRB02KT 2600 BR BKN050 BKN055 BKN340 03/03 Q1012 YLO
23:44
L
4 °C 1 km 5.200 ft 150° 150° 2 kt METAR EHKD 042244Z AUTO 15002KT 1000 BR BKN052 04/03 Q1012 AMB
23:36
M
3 °C 5 km - 130° 130° 3 kt METAR EHKD 042236Z AUTO 13003KT 5000 BR FEW055 03/03 Q1012 WHT
23:31
V
3 °C 10 km+ - 130° 130° 2 kt METAR EHKD 042231Z AUTO 13002KT 9999 NCD 03/03 Q1012 BLU
23:27
I
3 °C 4,4 km - 140° 140° 2 kt METAR EHKD 042227Z AUTO 14002KT 4400 BR NCD 03/03 Q1012 GRN
23:25
I
3 °C 1,9 km - Var Var 2 kt METAR EHKD 042225Z AUTO VRB02KT 1900 BR NCD 03/03 Q1012 YLO
23:17
I
4 °C 1,5 km - Var Var 2 kt METAR EHKD 042217Z AUTO VRB02KT 1500 BR FEW310 04/03 Q1012 AMB
23:11
I
3 °C 1,7 km 30.000 ft 130° 130° 3 kt METAR EHKD 042211Z AUTO 13003KT 1700 BR BKN300 03/03 Q1012 YLO
22:55
V
5 °C 10 km+ 30.000 ft 120° 120° 3 kt METAR EHKD 042155Z AUTO 12003KT 9999 OVC300 05/04 Q1012 BLU
22:25
V
6 °C 10 km+ 29.000 ft Var Var 2 kt METAR EHKD 042125Z AUTO VRB02KT 9999 OVC290 06/05 Q1012 BLU
21:55
V
6 °C 10 km+ 30.000 ft 080° 080° 4 kt METAR EHKD 042055Z AUTO 08004KT 9999 OVC300 06/05 Q1012 BLU
20:25
V
5 °C 10 km+ 31.000 ft 050° 050° 4 kt METAR EHKD 041925Z AUTO 05004KT 9999 OVC310 05/04 Q1012 BLU NOSIG
19:55
V
6 °C 10 km+ 32.000 ft 070° 070° 2 kt METAR EHKD 041855Z AUTO 07002KT 9999 OVC320 06/04 Q1012 BLU NOSIG
19:25
V
5 °C 10 km+ 31.000 ft 060° 060° 3 kt METAR EHKD 041825Z AUTO 06003KT 9999 OVC310 05/04 Q1012 BLU NOSIG
18:55
V
6 °C 10 km+ - 040° 040° 1 kt METAR EHKD 041755Z AUTO 04001KT 9999 NCD 06/03 Q1012 BLU NOSIG
18:25
V
7 °C 10 km+ 29.000 ft 040° 040° 1 kt METAR EHKD 041725Z AUTO 04001KT 9999 OVC290 07/03 Q1012 BLU NOSIG
17:55
V
8 °C 10 km+ 26.000 ft Var Var 1 kt METAR EHKD 041655Z AUTO VRB01KT 9999 OVC260 08/03 Q1012 BLU NOSIG
17:25
V
8 °C 10 km+ 26.000 ft Var Var 2 kt METAR EHKD 041625Z AUTO VRB02KT 9999 OVC260 08/04 Q1012 BLU NOSIG
16:55
V
9 °C 10 km+ 27.000 ft 320° 320° 3 kt METAR EHKD 041555Z AUTO 32003KT 290V030 9999 BKN270 09/04 Q1012 BLU NOSIG
16:25
V
9 °C 10 km+ - 280° 280° 3 kt METAR EHKD 041525Z AUTO 28003KT 220V350 9999 NCD 09/04 Q1012 BLU NOSIG
15:55
V
9 °C 10 km+ 27.000 ft 260° 260° 4 kt METAR EHKD 041455Z AUTO 26004KT 220V320 9999 OVC270 09/04 Q1012 BLU NOSIG
15:25
V
9 °C 10 km+ 27.000 ft 290° 290° 5 kt METAR EHKD 041425Z AUTO 29005KT 200V330 9999 OVC270 09/04 Q1012 BLU NOSIG
14:55
V
9 °C 10 km+ - 290° 290° 5 kt METAR EHKD 041355Z AUTO 29005KT 250V330 9999 NCD 09/04 Q1012 BLU NOSIG
14:25
V
9 °C 10 km+ - 280° 280° 6 kt METAR EHKD 041325Z AUTO 28006KT 240V330 9999 NCD 09/04 Q1012 BLU NOSIG
13:55
V
9 °C 10 km+ 13.000 ft 280° 280° 6 kt METAR EHKD 041255Z AUTO 28006KT 220V340 9999 FEW016 OVC130 09/05 Q1012 BLU NOSIG
13:25
M
9 °C 10 km+ 1.500 ft 300° 300° 7 kt METAR EHKD 041225Z AUTO 30007KT 9999 BKN015 BKN018 OVC140 09/04 Q1012 WHT NOSIG
13:28
V
9 °C 10 km+ 14.000 ft 290° 290° 7 kt METAR EHKD 041228Z AUTO 29007KT 260V320 9999 FEW016 OVC140 09/04 Q1012 BLU NOSIG
12:55
M
9 °C 10 km+ 1.500 ft 300° 300° 8 kt METAR EHKD 041155Z AUTO 30008KT 250V340 9999 BKN015 OVC130 09/05 Q1012 WHT NOSIG
12:39
V
10 °C 10 km+ 14.000 ft 300° 300° 8 kt METAR EHKD 041139Z AUTO 30008KT 240V330 9999 SCT014 SCT016 OVC140 10/06 Q1012 GRN NOSIG
12:34
V
9 °C 10 km+ 14.000 ft 290° 290° 9 kt METAR EHKD 041134Z AUTO 29009KT 240V320 9999 FEW014 SCT016 OVC140 09/05 Q1012 WHT NOSIG
12:25
V
9 °C 10 km+ 14.000 ft 290° 290° 8 kt METAR EHKD 041125Z AUTO 29008KT 260V330 9999 SCT014 OVC140 09/05 Q1012 GRN NOSIG
12:14
V
9 °C 10 km+ 14.000 ft 290° 290° 8 kt METAR EHKD 041114Z AUTO 29008KT 250V340 9999 SCT015 OVC140 09/05 Q1012 WHT NOSIG
12:07
V
9 °C 10 km+ 14.000 ft 280° 280° 8 kt METAR EHKD 041107Z AUTO 28008KT 250V310 9999 SCT015 OVC140 09/05 Q1012 WHT NOSIG
12:03
V
9 °C 10 km+ 13.000 ft 280° 280° 8 kt METAR EHKD 041103Z AUTO 28008KT 9999 FEW015 OVC130 09/05 Q1012 BLU NOSIG
11:55
V
9 °C 10 km+ 13.000 ft 290° 290° 7 kt METAR EHKD 041055Z AUTO 29007KT 260V330 9999 OVC130 09/05 Q1012 BLU BECMG FEW018
11:31
M
9 °C 10 km+ 1.500 ft 310° 310° 7 kt METAR EHKD 041031Z AUTO 31007KT 270V360 9999 BKN015 OVC150 09/05 Q1012 WHT BECMG SCT018
11:27
M
8 °C 10 km+ 1.500 ft 300° 300° 7 kt METAR EHKD 041027Z AUTO 30007KT 270V330 9999 OVC015 08/04 Q1012 WHT BECMG SCT018
11:25
M
8 °C 10 km+ 1.300 ft 290° 290° 8 kt METAR EHKD 041025Z AUTO 29008KT 230V330 9999 BKN013 OVC016 08/04 Q1011 GRN BECMG SCT018
11:12
M
8 °C 10 km+ 1.500 ft 270° 270° 8 kt METAR EHKD 041012Z AUTO 27008KT 240V310 9999 SCT012 OVC015 08/05 Q1011 GRN BECMG SCT018
11:06
M
8 °C 10 km+ 1.500 ft 270° 270° 8 kt METAR EHKD 041006Z AUTO 27008KT 230V310 9999 SCT012 OVC015 08/05 Q1011 GRN BECMG SCT018
11:02
M
8 °C 10 km+ 1.500 ft 270° 270° 9 kt METAR EHKD 041002Z AUTO 27009KT 230V310 9999 FEW013 OVC015 08/05 Q1011 WHT BECMG SCT018
10:58
M
8 °C 10 km+ 1.600 ft 270° 270° 9 kt METAR EHKD 040958Z AUTO 27009KT 230V310 9999 FEW012 SCT014 OVC016 08/05 Q1011 GRN BECMG SCT018
10:25
M
8 °C 10 km+ 1.000 ft 310° 310° 5 kt METAR EHKD 040925Z AUTO 31005KT 260V360 9999 BKN010 BKN092 OVC099 08/05 Q1011 GRN BECMG SCT012
10:03
M
7 °C 10 km+ 1.000 ft 290° 290° 7 kt METAR EHKD 040903Z AUTO 29007KT 250V320 9999 BKN010 BKN013 OVC093 07/05 Q1011 GRN BECMG NSC
09:55
M
7 °C 10 km+ 1.200 ft 290° 290° 7 kt METAR EHKD 040855Z AUTO 29007KT 250V320 9999 SCT010 BKN012 OVC015 07/05 Q1011 GRN TEMPO OVC010
09:40
M
7 °C 10 km+ 1.000 ft 290° 290° 6 kt METAR EHKD 040840Z AUTO 29006KT 260V320 9999 SCT009 OVC010 07/05 Q1011 GRN TEMPO OVC010
09:31
M
7 °C 10 km+ 1.000 ft 280° 280° 8 kt METAR EHKD 040831Z AUTO 28008KT 250V310 9999 SCT009 OVC010 07/05 Q1011 GRN TEMPO SCT010 BKN015
09:25
M
7 °C 10 km+ 1.000 ft 300° 300° 5 kt METAR EHKD 040825Z AUTO 30005KT 260V340 9999 OVC010 07/05 Q1011 GRN TEMPO SCT010 BKN015
08:55
M
7 °C 10 km+ 1.000 ft 300° 300° 4 kt METAR EHKD 040755Z AUTO 30004KT 230V330 9999 BKN010 OVC098 07/05 Q1011 GRN TEMPO SCT010 BKN015
08:25
V
7 °C 10 km+ 9.900 ft 320° 320° 5 kt METAR EHKD 040725Z AUTO 32005KT 280V010 9999 BKN099 OVC100 07/05 Q1010 BLU NOSIG
08:06
V
7 °C 10 km+ 4.800 ft 330° 330° 5 kt METAR EHKD 040706Z AUTO 33005KT 290V010 9999 FEW010 BKN048 OVC100 07/05 Q1010 BLU BECMG FEW015 SCT020
07:55
M
7 °C 10 km+ 1.000 ft 320° 320° 6 kt METAR EHKD 040655Z AUTO 32006KT 280V010 9999 BKN010 OVC014 07/05 Q1010 GRN BECMG FEW015 SCT020
07:29
M
7 °C 10 km+ 1.000 ft 310° 310° 8 kt METAR EHKD 040629Z AUTO 31008KT 280V340 9999 OVC010 07/05 Q1010 GRN BECMG FEW015 SCT020
07:25
M
7 °C 10 km+ 1.300 ft 310° 310° 8 kt METAR EHKD 040625Z AUTO 31008KT 260V340 9999 FEW010 OVC013 07/05 Q1010 GRN NOSIG
06:55
M
7 °C 10 km+ 1.000 ft 320° 320° 8 kt METAR EHKD 040555Z AUTO 32008KT 280V350 9999 SCT008 BKN010 OVC014 07/05 Q1010 GRN NOSIG
06:34
I
7 °C 10 km+ 900 ft 320° 320° 7 kt METAR EHKD 040534Z AUTO 32007KT 280V360 9999 SCT008 OVC009 07/05 Q1010 GRN NOSIG
06:25
M
7 °C 10 km+ 1.000 ft 310° 310° 8 kt METAR EHKD 040525Z AUTO 31008KT 270V340 9999 SCT008 OVC010 07/05 Q1010 GRN
05:55
M
7 °C 10 km+ 1.000 ft 310° 310° 9 kt METAR EHKD 040455Z AUTO 31009KT 280V340 9999 OVC010 07/05 Q1009 GRN
05:25
I
7 °C 10 km+ 900 ft 310° 310° 7 kt METAR EHKD 040425Z AUTO 31007KT 270V340 9999 BKN009 OVC010 07/05 Q1009 GRN
04:55
M
7 °C 10 km+ 1.000 ft 310° 310° 8 kt METAR EHKD 040355Z AUTO 31008KT 280V340 9999 OVC010 07/05 Q1009 GRN
04:25
M
7 °C 10 km+ 1.000 ft 320° 320° 10 kt METAR EHKD 040325Z AUTO 32010KT 290V020 9999 BKN010 OVC012 07/05 Q1008 GRN
03:55
I
7 °C 10 km+ 700 ft 310° 310° 11 kt METAR EHKD 040255Z AUTO 31011KT 270V340 9999 BKN007 OVC008 07/06 Q1008 GRN
03:25
I
7 °C 10 km+ 600 ft 310° 310° 10 kt METAR EHKD 040225Z AUTO 31010KT 280V020 9999 OVC006 07/06 Q1008 YLO
02:55
I
7 °C 10 km+ 600 ft 310° 310° 11 kt METAR EHKD 040155Z AUTO 31011KT 280V350 9999 BKN006 OVC007 07/06 Q1007 YLO
02:25
I
7 °C 10 km+ 600 ft 310° 310° 12 kt METAR EHKD 040125Z AUTO 31012KT 260V340 9999 BKN006 07/06 Q1007 YLO
01:55
I
7 °C 9 km 500 ft 300° 300° 9 kt METAR EHKD 040055Z AUTO 30009KT 250V330 9000 BR BKN005 07/06 Q1007 YLO
01:37
I
7 °C 9 km 500 ft 300° 300° 12 kt METAR EHKD 040037Z AUTO 30012KT 260V330 9000 BR OVC005 07/07 Q1007 YLO
01:25
L
7 °C 6 km 300 ft 300° 300° 11 kt METAR EHKD 040025Z AUTO 30011KT 260V330 6000 BR OVC003 07/07 Q1007 YLO
01:08
L
7 °C 5 km 300 ft 290° 290° 10 kt METAR EHKD 040008Z AUTO 29010KT 260V330 5000 BR OVC003 07/07 Q1007 YLO
00:55
L
7 °C 4,7 km 300 ft 300° 300° 10 kt METAR EHKD 032355Z AUTO 30010KT 270V330 4700 BR OVC003 07/07 Q1006 YLO
00:30
L
7 °C 5 km 300 ft 300° 300° 9 kt METAR EHKD 032330Z AUTO 30009KT 5000 BR OVC003 07/07 Q1006 YLO
00:25
L
7 °C 5 km 200 ft 310° 310° 8 kt METAR EHKD 032325Z AUTO 31008KT 280V350 5000 BR OVC002 07/07 Q1006 AMB

2024年3月3日

时间 代码 天气 温度 能见度 天花板 METAR/SPECI
23:55
L
7 °C 3,2 km 200 ft 290° 290° 10 kt METAR EHKD 032255Z AUTO 29010KT 250V320 3200 BR OVC002 07/07 Q1006 AMB
23:38
L
8 °C 3,4 km 200 ft 290° 290° 8 kt METAR EHKD 032238Z AUTO 29008KT 260V320 3400 BR OVC002 08/07 Q1006 AMB
23:34
L
8 °C 4 km 200 ft 290° 290° 8 kt METAR EHKD 032234Z AUTO 29008KT 260V320 4000 BR BKN002 BKN037 OVC110 08/07 Q1006 AMB
23:30
I
7 °C 3,9 km 10.000 ft 300° 300° 7 kt METAR EHKD 032230Z AUTO 30007KT 260V320 3900 BR SCT002 SCT037 OVC100 07/07 Q1006 AMB
23:25
I
7 °C 4 km 11.000 ft 310° 310° 7 kt METAR EHKD 032225Z AUTO 31007KT 280V340 4000 BR FEW002 SCT037 OVC110 07/07 Q1006 GRN
23:11
L
8 °C 4,2 km 200 ft 290° 290° 7 kt METAR EHKD 032211Z AUTO 29007KT 4200 BR BKN002 BKN003 OVC100 08/07 Q1006 AMB
23:07
I
8 °C 4,4 km 10.000 ft 290° 290° 6 kt METAR EHKD 032207Z AUTO 29006KT 260V320 4400 BR SCT002 OVC100 08/07 Q1006 AMB
22:55
I
8 °C 4,8 km 10.000 ft 290° 290° 6 kt METAR EHKD 032155Z AUTO 29006KT 260V330 4800 BR SCT097 OVC100 08/07 Q1005 GRN
22:25
M
8 °C 5 km 10.000 ft 300° 300° 8 kt METAR EHKD 032125Z AUTO 30008KT 260V320 5000 BR FEW099 OVC100 08/07 Q1005 WHT
21:55
M
8 °C 6 km 11.000 ft 280° 280° 8 kt METAR EHKD 032055Z AUTO 28008KT 6000 BR OVC110 08/07 Q1005 WHT
21:43
M
8 °C 5 km 11.000 ft 270° 270° 7 kt METAR EHKD 032043Z AUTO 27007KT 5000 BR OVC110 08/07 Q1005 WHT
21:29
M
8 °C 5 km 10.000 ft 280° 280° 5 kt METAR EHKD 032029Z AUTO 28005KT 5000 BR OVC100 08/07 Q1005 WHT
21:25
I
8 °C 4,3 km 11.000 ft 280° 280° 6 kt METAR EHKD 032025Z AUTO 28006KT 250V320 4300 BR OVC110 08/07 Q1005 GRN
21:17
M
8 °C 5 km 11.000 ft 270° 270° 6 kt METAR EHKD 032017Z AUTO 27006KT 240V320 5000 BR OVC110 08/07 Q1005 WHT
21:12
I
8 °C 4,3 km 11.000 ft 270° 270° 4 kt METAR EHKD 032012Z AUTO 27004KT 4300 BR OVC110 08/07 Q1004 GRN
20:55
M
8 °C 5 km 14.000 ft 270° 270° 4 kt METAR EHKD 031955Z AUTO 27004KT 5000 BR OVC140 08/07 Q1004 WHT
20:39
M
8 °C 7 km 14.000 ft 290° 290° 3 kt METAR EHKD 031939Z AUTO 29003KT 7000 BR OVC140 08/07 Q1004 WHT
20:25
V
8 °C 10 km+ 10.000 ft 310° 310° 1 kt METAR EHKD 031925Z AUTO 31001KT 9999 OVC100 08/07 Q1004 BLU
19:55
V
9 °C 10 km+ 11.000 ft 340° 340° 3 kt METAR EHKD 031855Z AUTO 34003KT 310V010 9999 OVC110 09/07 Q1004 BLU
19:25
V
9 °C 10 km+ 10.000 ft 350° 350° 3 kt METAR EHKD 031825Z AUTO 35003KT 300V020 9999 OVC100 09/07 Q1004 BLU BECMG 28006KT
18:55
V
10 °C 10 km+ 10.000 ft 310° 310° 5 kt METAR EHKD 031755Z AUTO 31005KT 9999 OVC100 10/07 Q1003 BLU BECMG 28006KT
18:25
V
9 °C 10 km+ 11.000 ft 360° 360° 4 kt METAR EHKD 031725Z AUTO 36004KT 320V030 9999 OVC110 09/07 Q1003 BLU BECMG 28006KT
17:55
V
10 °C 10 km+ 11.000 ft 340° 340° 2 kt METAR EHKD 031655Z AUTO 34002KT 9999 OVC110 10/07 Q1003 BLU BECMG 28006KT
17:29
V
9 °C 10 km+ 11.000 ft 020° 020° 3 kt METAR EHKD 031629Z AUTO 02003KT 350V060 9999 OVC110 09/07 Q1002 BLU BECMG 28006KT
17:25
V
10 °C 10 km+ 11.000 ft 020° 020° 3 kt METAR EHKD 031625Z AUTO 02003KT 9999 OVC110 10/07 Q1002 BLU NOSIG
16:55
V
10 °C 10 km+ 11.000 ft 040° 040° 4 kt METAR EHKD 031555Z AUTO 04004KT 9999 OVC110 10/08 Q1002 BLU NOSIG
16:25
V
11 °C 10 km+ 11.000 ft 050° 050° 4 kt METAR EHKD 031525Z AUTO 05004KT 9999 BKN110 OVC220 11/09 Q1002 BLU NOSIG
15:55
V
13 °C 10 km+ 23.000 ft Var Var 2 kt METAR EHKD 031455Z AUTO VRB02KT 9999 OVC230 13/08 Q1002 BLU NOSIG
15:25
V
13 °C 10 km+ 23.000 ft Var Var 2 kt METAR EHKD 031425Z AUTO VRB02KT 9999 OVC230 13/08 Q1001 BLU NOSIG
14:55
V
12 °C 10 km+ 10.000 ft 080° 080° 3 kt METAR EHKD 031355Z AUTO 08003KT 060V120 9999 OVC100 12/08 Q1001 BLU BECMG VRB02KT
14:25
V
11 °C 10 km+ 10.000 ft 090° 090° 4 kt METAR EHKD 031325Z AUTO 09004KT 9999 OVC100 11/08 Q1001 BLU NOSIG
13:55
V
10 °C 10 km+ 10.000 ft 090° 090° 7 kt METAR EHKD 031255Z AUTO 09007KT 9999 SCT082 OVC100 10/08 Q1001 BLU
13:25
V
11 °C 10 km+ 8.800 ft 090° 090° 5 kt METAR EHKD 031225Z AUTO 09005KT 060V130 9999 FEW057 SCT079 BKN088 11/08 Q1001 REDZ BLU
13:12
V
11 °C 10 km+ 7.700 ft 110° 110° 5 kt METAR EHKD 031212Z AUTO 11005KT 080V140 9999 DZRA FEW052 BKN077 OVC082 11/08 Q1001 BLU
12:55
V
10 °C 10 km+ 6.800 ft 110° 110° 6 kt METAR EHKD 031155Z AUTO 11006KT 9999 FEW052 SCT059 BKN068 10/07 Q1001 BLU
12:25
V
10 °C 10 km+ 9.100 ft 070° 070° 5 kt METAR EHKD 031125Z AUTO 07005KT 030V100 9999 FEW050 OVC091 10/07 Q1001 BLU
11:55
V
11 °C 10 km+ 8.400 ft 110° 110° 5 kt METAR EHKD 031055Z AUTO 11005KT 9999 SCT077 BKN084 OVC091 11/07 Q1001 BLU NOSIG
11:25
V
12 °C 10 km+ 8.500 ft 120° 120° 6 kt METAR EHKD 031025Z AUTO 12006KT 9999 FEW080 BKN085 BKN092 12/07 Q1001 BLU NOSIG
10:55
V
11 °C 10 km+ 11.000 ft 120° 120° 8 kt METAR EHKD 030955Z AUTO 12008KT 9999 FEW086 OVC110 11/07 Q1001 BLU NOSIG
10:25
V
10 °C 10 km+ 8.400 ft 120° 120° 9 kt METAR EHKD 030925Z AUTO 12009KT 9999 SCT079 OVC084 10/07 Q1001 BLU NOSIG
09:55
V
9 °C 10 km+ 9.000 ft 120° 120° 9 kt METAR EHKD 030855Z AUTO 12009KT 9999 SCT054 SCT082 BKN090 09/06 Q1001 BLU NOSIG
09:25
V
9 °C 10 km+ 8.100 ft 120° 120° 7 kt METAR EHKD 030825Z AUTO 12007KT 090V150 9999 FEW063 BKN081 BKN089 09/06 Q1000 BLU NOSIG
08:55
V
8 °C 10 km+ 6.100 ft 120° 120° 9 kt METAR EHKD 030755Z AUTO 12009KT 080V140 9999 BKN061 BKN071 OVC077 08/06 Q1000 BLU NOSIG
08:25
V
8 °C 10 km+ 7.700 ft 110° 110° 9 kt METAR EHKD 030725Z AUTO 11009KT 090V150 9999 FEW061 BKN077 OVC091 08/05 Q1000 BLU NOSIG
07:55
V
8 °C 10 km+ 11.000 ft 100° 100° 8 kt METAR EHKD 030655Z AUTO 10008KT 080V140 9999 OVC110 08/05 Q1000 BLU NOSIG
07:25
V
8 °C 10 km+ 6.600 ft 110° 110° 7 kt METAR EHKD 030625Z AUTO 11007KT 080V140 9999 BKN066 OVC072 08/05 Q0999 BLU NOSIG
06:57
V
8 °C 10 km+ 10.000 ft 110° 110° 7 kt METAR EHKD 030557Z AUTO 11007KT 080V150 9999 FEW066 OVC100 08/05 Q0999 BLU NOSIG